createdAt,value
2023-05-24T00:00:46.812Z,8.13
2023-05-24T00:03:15.609Z,7.53
2023-05-24T00:05:42.925Z,6.28
2023-05-24T00:08:09.593Z,7.20
2023-05-24T00:10:37.837Z,7.07
2023-05-24T00:13:06.181Z,6.43
2023-05-24T00:15:34.266Z,6.25
2023-05-24T00:18:01.079Z,9.02
2023-05-24T00:20:28.245Z,6.95
2023-05-24T00:22:55.182Z,5.65
2023-05-24T00:25:22.000Z,4.45
2023-05-24T00:27:48.691Z,4.68
2023-05-24T00:30:17.411Z,7.15
2023-05-24T00:32:45.565Z,4.18
2023-05-24T00:35:14.072Z,6.57
2023-05-24T00:37:45.862Z,6.60
2023-05-24T00:40:14.223Z,5.60
2023-05-24T00:42:41.990Z,7.18
2023-05-24T00:45:09.867Z,6.03
2023-05-24T00:47:37.366Z,6.10
2023-05-24T00:50:04.749Z,8.10
2023-05-24T00:52:32.544Z,5.88
2023-05-24T00:54:59.786Z,8.27
2023-05-24T00:57:27.446Z,6.60
2023-05-24T00:59:56.266Z,3.80
2023-05-24T01:02:25.879Z,5.18
2023-05-24T01:04:53.547Z,6.93
2023-05-24T01:08:00.385Z,5.63
2023-05-24T01:10:47.273Z,6.40
2023-05-24T01:13:50.117Z,6.45
2023-05-24T01:16:27.568Z,7.82
2023-05-24T01:19:00.814Z,6.28
2023-05-24T01:21:38.746Z,5.97
2023-05-24T01:24:36.114Z,7.57
2023-05-24T01:27:12.536Z,12.88
2023-05-24T01:29:39.722Z,7.88
2023-05-24T01:32:07.326Z,9.25
2023-05-24T01:34:34.008Z,7.22
2023-05-24T01:37:00.745Z,5.10
2023-05-24T01:39:30.474Z,7.32
2023-05-24T01:42:25.488Z,6.38
2023-05-24T01:45:10.930Z,5.53
2023-05-24T01:47:55.781Z,7.30
2023-05-24T01:50:31.650Z,7.32
2023-05-24T01:53:06.686Z,9.68
2023-05-24T01:55:34.862Z,5.95
2023-05-24T01:58:04.889Z,5.50
2023-05-24T02:00:33.025Z,7.25
2023-05-24T02:03:00.083Z,6.35
2023-05-24T02:05:26.871Z,8.45
2023-05-24T02:07:54.126Z,4.38
2023-05-24T02:10:20.921Z,6.95
2023-05-24T02:12:47.708Z,5.57
2023-05-24T02:15:15.138Z,4.72
2023-05-24T02:17:43.393Z,3.53
2023-05-24T02:20:11.141Z,5.20
2023-05-24T02:22:39.900Z,4.88
2023-05-24T02:25:08.596Z,4.15
2023-05-24T02:27:37.582Z,5.13
2023-05-24T02:30:07.322Z,6.47
2023-05-24T02:32:35.203Z,4.38
2023-05-24T02:35:02.319Z,5.22
2023-05-24T02:37:29.427Z,5.68
2023-05-24T02:39:56.486Z,5.22
2023-05-24T02:42:23.309Z,4.88
2023-05-24T02:44:52.931Z,4.47
2023-05-24T02:47:20.019Z,5.45
2023-05-24T02:49:46.875Z,5.45
2023-05-24T02:52:14.729Z,4.28
2023-05-24T02:54:41.392Z,3.97
2023-05-24T02:57:08.485Z,5.18
2023-05-24T02:59:36.644Z,4.72
2023-05-24T03:02:04.150Z,4.65
2023-05-24T03:04:31.291Z,5.15
2023-05-24T03:06:58.749Z,5.43
2023-05-24T03:09:26.539Z,4.80
2023-05-24T03:11:54.915Z,5.47
2023-05-24T03:14:24.250Z,7.97
2023-05-24T03:16:52.364Z,5.57
2023-05-24T03:19:19.355Z,4.18
2023-05-24T03:21:46.520Z,4.38
2023-05-24T03:24:15.429Z,5.90
2023-05-24T03:26:42.680Z,6.05
2023-05-24T03:29:09.812Z,5.85
2023-05-24T03:31:37.000Z,4.80
2023-05-24T03:34:04.793Z,4.38
2023-05-24T03:36:34.827Z,7.55
2023-05-24T03:39:04.725Z,5.47
2023-05-24T03:41:31.675Z,7.40
2023-05-24T03:43:58.895Z,4.88
2023-05-24T03:46:26.561Z,6.05
2023-05-24T03:48:53.647Z,10.50
2023-05-24T03:51:21.525Z,8.18
2023-05-24T03:53:50.534Z,7.97
2023-05-24T03:56:19.758Z,6.47
2023-05-24T03:58:47.245Z,6.35
2023-05-24T04:01:25.498Z,7.38
2023-05-24T04:03:59.770Z,7.47
2023-05-24T04:06:29.834Z,5.68
2023-05-24T04:08:58.127Z,7.13
2023-05-24T04:11:29.010Z,5.40
2023-05-24T04:13:57.765Z,5.25
2023-05-24T04:16:26.833Z,6.20
2023-05-24T04:18:55.365Z,5.97
2023-05-24T04:21:23.614Z,8.20
2023-05-24T04:23:51.567Z,7.13
2023-05-24T04:26:18.972Z,9.77
2023-05-24T04:28:46.934Z,8.15
2023-05-24T04:31:13.942Z,7.45
2023-05-24T04:33:41.127Z,8.07
2023-05-24T04:36:08.468Z,8.20
2023-05-24T04:38:36.331Z,11.13
2023-05-24T04:41:03.300Z,14.23
2023-05-24T04:43:30.071Z,9.85
2023-05-24T04:45:56.796Z,8.50
2023-05-24T04:48:26.251Z,9.52
2023-05-24T04:50:53.839Z,11.70
2023-05-24T04:53:21.337Z,12.02
2023-05-24T04:55:50.256Z,9.25
2023-05-24T04:58:17.451Z,8.60
2023-05-24T05:00:44.863Z,8.95
2023-05-24T05:03:11.789Z,11.30
2023-05-24T05:05:40.078Z,13.07
2023-05-24T05:08:06.948Z,9.02
2023-05-24T05:10:35.775Z,12.35
2023-05-24T05:13:03.038Z,7.80
2023-05-24T05:15:29.899Z,14.60
2023-05-24T05:17:57.383Z,12.20
2023-05-24T05:20:25.751Z,12.07
2023-05-24T05:22:52.879Z,14.20
2023-05-24T05:25:20.130Z,10.50
2023-05-24T05:27:46.813Z,11.98
2023-05-24T05:30:15.065Z,7.68
2023-05-24T05:32:42.272Z,8.52
2023-05-24T05:35:09.895Z,7.50
2023-05-24T05:37:36.844Z,7.13
2023-05-24T05:40:04.924Z,7.43
2023-05-24T05:42:33.609Z,6.30
2023-05-24T05:45:01.687Z,7.57
2023-05-24T05:47:30.369Z,6.10
2023-05-24T05:49:57.220Z,8.75
2023-05-24T05:52:24.153Z,7.38
2023-05-24T05:54:51.617Z,8.23
2023-05-24T05:57:24.103Z,6.43
2023-05-24T05:59:51.163Z,7.27
2023-05-24T06:02:24.560Z,6.80
2023-05-24T06:04:54.778Z,8.55
2023-05-24T06:07:23.424Z,6.00
2023-05-24T06:09:50.321Z,8.73
2023-05-24T06:12:17.003Z,8.38
2023-05-24T06:14:46.374Z,7.10
2023-05-24T06:17:13.706Z,6.75
2023-05-24T06:19:40.405Z,6.63
2023-05-24T06:22:07.104Z,8.55
2023-05-24T06:24:34.914Z,11.75
2023-05-24T06:27:04.594Z,6.07
2023-05-24T06:29:32.232Z,9.82
2023-05-24T06:32:04.501Z,7.00
2023-05-24T06:34:36.209Z,6.63
2023-05-24T06:37:03.006Z,6.97
2023-05-24T06:39:31.683Z,10.82
2023-05-24T06:41:58.418Z,9.32
2023-05-24T06:44:34.552Z,9.07
2023-05-24T06:47:03.154Z,9.98
2023-05-24T06:49:29.870Z,12.93
2023-05-24T06:51:58.071Z,11.63
2023-05-24T06:54:26.838Z,9.38
2023-05-24T06:56:54.924Z,9.45
2023-05-24T06:59:24.328Z,12.40
2023-05-24T07:01:57.926Z,13.93
2023-05-24T07:04:28.489Z,11.82
2023-05-24T07:06:59.056Z,10.93
2023-05-24T07:09:30.371Z,11.90
2023-05-24T07:12:02.236Z,12.55
2023-05-24T07:14:33.728Z,12.15
2023-05-24T07:17:03.178Z,9.18
2023-05-24T07:19:35.555Z,14.60
2023-05-24T07:22:05.028Z,10.10
2023-05-24T07:24:33.766Z,12.25
2023-05-24T07:27:02.239Z,10.40
2023-05-24T07:29:31.026Z,10.10
2023-05-24T07:31:59.348Z,10.57
2023-05-24T07:34:28.909Z,18.20
2023-05-24T07:36:59.432Z,15.38
2023-05-24T07:39:30.880Z,12.20
2023-05-24T07:41:58.576Z,9.68
2023-05-24T07:44:25.336Z,11.13
2023-05-24T07:46:54.129Z,10.60
2023-05-24T07:49:23.303Z,10.18
2023-05-24T07:51:51.840Z,13.98
2023-05-24T07:54:19.293Z,12.13
2023-05-24T07:56:46.018Z,9.77
2023-05-24T07:59:14.362Z,15.25
2023-05-24T08:01:43.153Z,9.55
2023-05-24T08:04:10.445Z,10.98
2023-05-24T08:06:38.245Z,14.63
2023-05-24T08:09:06.474Z,10.70
2023-05-24T08:11:33.352Z,17.40
2023-05-24T08:14:00.050Z,12.40
2023-05-24T08:16:29.590Z,11.38
2023-05-24T08:18:56.834Z,10.73
2023-05-24T08:21:24.261Z,8.65
2023-05-24T08:23:52.414Z,11.52
2023-05-24T08:26:21.622Z,11.70
2023-05-24T08:28:49.844Z,10.13
2023-05-24T08:31:17.565Z,11.75
2023-05-24T08:33:44.688Z,8.95
2023-05-24T08:36:11.798Z,9.48
2023-05-24T08:38:38.561Z,8.82
2023-05-24T08:41:07.736Z,7.65
2023-05-24T08:43:35.325Z,13.45
2023-05-24T08:46:04.426Z,7.70
2023-05-24T08:48:32.115Z,9.73
2023-05-24T08:50:59.529Z,8.73
2023-05-24T08:53:27.466Z,5.93
2023-05-24T08:55:55.913Z,6.13
2023-05-24T08:58:23.373Z,4.32
2023-05-24T09:00:50.540Z,6.78
2023-05-24T09:03:17.871Z,7.35
2023-05-24T09:05:45.497Z,8.07
2023-05-24T09:08:18.270Z,6.28
2023-05-24T09:13:19.894Z,5.47
2023-05-24T09:15:47.140Z,5.82
2023-05-24T09:18:14.102Z,5.47
2023-05-24T09:20:41.129Z,5.15
2023-05-24T09:23:08.963Z,4.45
2023-05-24T09:25:35.995Z,5.45
2023-05-24T09:28:08.570Z,7.28
2023-05-24T09:30:37.182Z,4.60
2023-05-24T09:33:05.618Z,4.45
2023-05-24T09:35:33.416Z,7.05
2023-05-24T09:38:06.416Z,5.03
2023-05-24T09:43:04.056Z,5.32
2023-05-24T09:45:39.940Z,7.78
2023-05-24T09:48:11.682Z,5.35
2023-05-24T09:50:40.568Z,4.88
2023-05-24T09:53:09.519Z,7.95
2023-05-24T09:55:38.816Z,4.03
2023-05-24T09:58:09.586Z,4.43
2023-05-24T10:00:42.145Z,6.38
2023-05-24T10:03:15.635Z,3.55
2023-05-24T10:05:48.447Z,4.85
2023-05-24T10:08:16.290Z,7.05
2023-05-24T10:10:44.104Z,5.75
2023-05-24T10:13:11.886Z,6.18
2023-05-24T10:15:39.163Z,4.38
2023-05-24T10:18:11.375Z,6.07
2023-05-24T10:20:41.627Z,5.70
2023-05-24T10:23:10.335Z,5.57
2023-05-24T10:25:42.139Z,6.07
2023-05-24T10:28:14.153Z,4.32
2023-05-24T10:30:54.699Z,4.50
2023-05-24T10:33:24.420Z,4.15
2023-05-24T10:35:54.300Z,5.38
2023-05-24T10:38:28.255Z,5.00
2023-05-24T10:40:55.439Z,6.00
2023-05-24T10:43:22.761Z,7.65
2023-05-24T10:45:51.676Z,3.55
2023-05-24T10:48:25.810Z,8.75
2023-05-24T10:50:54.780Z,11.88
2023-05-24T10:53:28.363Z,12.70
2023-05-24T10:56:00.367Z,8.38
2023-05-24T10:58:34.527Z,14.20
2023-05-24T11:01:05.439Z,13.02
2023-05-24T11:03:37.491Z,11.38
2023-05-24T11:06:07.086Z,14.48
2023-05-24T11:08:36.077Z,14.52
2023-05-24T11:13:43.700Z,18.13
2023-05-24T11:16:35.517Z,14.02
2023-05-24T11:19:17.927Z,16.20
2023-05-24T11:21:50.052Z,12.60
2023-05-24T11:24:19.212Z,14.87
2023-05-24T11:26:47.660Z,15.85
2023-05-24T11:29:23.070Z,14.82
2023-05-24T11:31:58.719Z,15.63
2023-05-24T11:34:28.224Z,12.75
2023-05-24T11:36:55.745Z,17.45
2023-05-24T11:39:23.958Z,24.27
2023-05-24T11:41:50.863Z,15.65
2023-05-24T11:44:22.333Z,12.38
2023-05-24T11:46:49.102Z,14.60
2023-05-24T11:49:17.054Z,12.88
2023-05-24T11:51:44.035Z,12.13
2023-05-24T11:54:11.868Z,13.70
2023-05-24T11:56:38.735Z,12.10
2023-05-24T11:59:17.030Z,10.32
2023-05-24T12:01:44.718Z,13.15
2023-05-24T12:04:12.002Z,15.65
2023-05-24T12:06:45.495Z,11.82
2023-05-24T12:09:14.717Z,12.57
2023-05-24T12:11:44.448Z,11.10
2023-05-24T12:14:28.259Z,15.52
2023-05-24T12:16:56.495Z,12.63
2023-05-24T12:19:33.780Z,13.30
2023-05-24T12:22:05.833Z,16.58
2023-05-24T12:24:33.024Z,12.70
2023-05-24T12:27:02.316Z,11.50
2023-05-24T12:29:40.779Z,14.25
2023-05-24T12:32:13.641Z,11.85
2023-05-24T12:37:17.762Z,13.23
2023-05-24T12:39:45.220Z,11.18
2023-05-24T12:42:15.281Z,14.02
2023-05-24T12:44:42.889Z,15.38
2023-05-24T12:47:11.040Z,10.85
2023-05-24T12:49:40.560Z,11.73
2023-05-24T12:52:07.813Z,11.50
2023-05-24T12:54:34.579Z,10.25
2023-05-24T12:57:02.865Z,12.77
2023-05-24T12:59:30.236Z,10.95
2023-05-24T13:01:56.976Z,13.73
2023-05-24T13:04:27.581Z,14.93
2023-05-24T13:06:54.769Z,16.80
2023-05-24T13:09:23.913Z,13.95
2023-05-24T13:11:53.476Z,13.65
2023-05-24T13:14:20.456Z,12.73
2023-05-24T13:16:47.987Z,13.93
2023-05-24T13:19:15.093Z,13.73
2023-05-24T13:21:44.146Z,12.18
2023-05-24T13:24:16.757Z,12.82
2023-05-24T13:26:44.355Z,13.25
2023-05-24T13:31:43.250Z,20.15
2023-05-24T13:34:11.277Z,11.13
2023-05-24T13:36:39.366Z,12.45
2023-05-24T13:41:37.884Z,12.45
2023-05-24T13:44:04.890Z,14.15
2023-05-24T13:46:33.617Z,15.55
2023-05-24T13:49:01.743Z,15.60
2023-05-24T13:51:31.464Z,17.55
2023-05-24T13:54:01.350Z,18.33
2023-05-24T13:56:36.982Z,18.00
2023-05-24T13:59:07.265Z,16.98
2023-05-24T14:01:36.006Z,14.20
2023-05-24T14:04:03.662Z,17.98
2023-05-24T14:06:31.095Z,19.55
2023-05-24T14:08:58.496Z,13.00
2023-05-24T14:11:32.834Z,10.05
2023-05-24T14:19:02.129Z,23.60
2023-05-24T14:21:28.881Z,19.95
2023-05-24T14:23:56.204Z,15.23
2023-05-24T14:26:24.429Z,14.57
2023-05-24T14:28:54.472Z,19.70
2023-05-24T14:31:23.285Z,11.02
2023-05-24T14:33:51.317Z,11.80
2023-05-24T14:36:19.329Z,13.43
2023-05-24T14:38:47.458Z,13.88
2023-05-24T14:41:15.924Z,16.67
2023-05-24T14:43:43.674Z,16.65
2023-05-24T14:46:11.602Z,14.90
2023-05-24T14:48:41.865Z,13.32
2023-05-24T14:51:10.027Z,17.67
2023-05-24T14:53:36.740Z,16.60
2023-05-24T14:56:06.759Z,20.90
2023-05-24T14:58:33.626Z,12.55
2023-05-24T15:01:00.473Z,19.65
2023-05-24T15:03:29.107Z,15.73
2023-05-24T15:05:59.796Z,13.45
2023-05-24T15:08:29.027Z,16.42
2023-05-24T15:10:58.638Z,11.77
2023-05-24T15:13:26.887Z,15.60
2023-05-24T15:15:57.564Z,13.73
2023-05-24T15:18:27.978Z,11.80
2023-05-24T15:20:57.451Z,14.90
2023-05-24T15:23:26.249Z,13.00
2023-05-24T15:25:53.253Z,9.95
2023-05-24T15:28:20.121Z,12.85
2023-05-24T15:30:48.846Z,11.80
2023-05-24T15:33:18.619Z,11.15
2023-05-24T15:35:47.763Z,10.07
2023-05-24T15:38:17.971Z,10.57
2023-05-24T15:40:46.689Z,12.35
2023-05-24T15:43:15.745Z,11.65
2023-05-24T15:45:44.010Z,8.80
2023-05-24T15:48:10.855Z,9.55
2023-05-24T15:50:57.835Z,10.20
2023-05-24T15:53:26.397Z,10.70
2023-05-24T15:55:55.580Z,9.48
2023-05-24T15:58:22.364Z,11.13
2023-05-24T16:00:51.023Z,12.73
2023-05-24T16:03:18.671Z,13.07
2023-05-24T16:05:51.030Z,16.00
2023-05-24T16:08:18.022Z,10.67
2023-05-24T16:10:46.636Z,9.35
2023-05-24T16:13:13.658Z,10.88
2023-05-24T16:15:43.342Z,10.82
2023-05-24T16:18:11.665Z,15.52
2023-05-24T16:20:43.012Z,10.60
2023-05-24T16:23:11.925Z,15.85
2023-05-24T16:25:55.511Z,16.05
2023-05-24T16:28:24.314Z,14.63
2023-05-24T16:30:56.494Z,17.67
2023-05-24T16:33:26.921Z,13.07
2023-05-24T16:35:56.849Z,18.85
2023-05-24T16:38:25.597Z,18.40
2023-05-24T16:40:53.766Z,11.70
2023-05-24T16:43:20.922Z,12.95
2023-05-24T16:45:49.541Z,13.38
2023-05-24T16:48:16.588Z,19.58
2023-05-24T16:50:43.517Z,14.98
2023-05-24T16:53:10.418Z,12.70
2023-05-24T16:55:37.079Z,21.92
2023-05-24T16:58:03.946Z,19.08
2023-05-24T17:00:30.676Z,16.15
2023-05-24T17:02:59.492Z,12.48
2023-05-24T17:05:26.326Z,15.45
2023-05-24T17:07:54.871Z,16.30
2023-05-24T17:10:23.085Z,21.63
2023-05-24T17:12:51.916Z,18.15
2023-05-24T17:15:18.778Z,14.38
2023-05-24T17:17:45.588Z,17.98
2023-05-24T17:20:13.641Z,16.83
2023-05-24T17:22:41.132Z,19.52
2023-05-24T17:25:08.564Z,16.60
2023-05-24T17:27:35.435Z,15.60
2023-05-24T17:30:02.196Z,18.17
2023-05-24T17:32:28.952Z,12.82
2023-05-24T17:34:57.256Z,14.55
2023-05-24T17:37:25.978Z,15.75
2023-05-24T17:39:52.851Z,17.60
2023-05-24T17:42:19.727Z,15.77
2023-05-24T17:44:46.464Z,12.25
2023-05-24T17:47:13.207Z,18.65
2023-05-24T17:49:39.920Z,18.77
2023-05-24T17:52:30.055Z,12.77
2023-05-24T17:54:56.862Z,17.60
2023-05-24T17:57:29.975Z,17.85
2023-05-24T17:59:56.909Z,12.70
2023-05-24T18:02:27.168Z,12.43
2023-05-24T18:05:01.583Z,19.85
2023-05-24T18:07:31.186Z,16.92
2023-05-24T18:10:00.862Z,19.55
2023-05-24T18:12:31.280Z,26.08
2023-05-24T18:14:58.028Z,13.82
2023-05-24T18:17:27.338Z,11.40
2023-05-24T18:19:54.166Z,11.48
2023-05-24T18:22:21.317Z,12.93
2023-05-24T18:24:47.997Z,13.75
2023-05-24T18:27:14.744Z,13.05
2023-05-24T18:29:41.425Z,13.13
2023-05-24T18:32:08.175Z,13.27
2023-05-24T18:34:34.918Z,13.32
2023-05-24T18:37:01.646Z,19.60
2023-05-24T18:39:28.354Z,17.55
2023-05-24T18:41:55.106Z,16.63
2023-05-24T18:44:21.899Z,18.95
2023-05-24T18:46:48.667Z,15.55
2023-05-24T18:49:15.672Z,14.20
2023-05-24T18:51:42.394Z,12.63
2023-05-24T18:54:09.134Z,10.90
2023-05-24T18:56:35.958Z,14.65
2023-05-24T18:59:02.645Z,12.32
2023-05-24T19:01:29.403Z,13.35
2023-05-24T19:03:56.194Z,15.88
2023-05-24T19:06:23.259Z,14.52
2023-05-24T19:08:49.983Z,9.55
2023-05-24T19:11:16.689Z,12.55
2023-05-24T19:13:43.380Z,14.98
2023-05-24T19:16:17.275Z,11.43
2023-05-24T19:18:45.032Z,16.00
2023-05-24T19:21:12.433Z,11.90
2023-05-24T19:23:40.649Z,13.07
2023-05-24T19:26:07.338Z,11.50
2023-05-24T19:28:37.776Z,15.80
2023-05-24T19:31:04.791Z,14.82
2023-05-24T19:33:31.482Z,16.73
2023-05-24T19:35:58.177Z,13.27
2023-05-24T19:38:24.830Z,9.98
2023-05-24T19:40:51.541Z,15.95
2023-05-24T19:43:18.259Z,10.98
2023-05-24T19:45:45.224Z,14.18
2023-05-24T19:48:12.613Z,13.15
2023-05-24T19:50:40.644Z,12.15
2023-05-24T19:53:07.366Z,10.55
2023-05-24T19:55:34.040Z,13.15
2023-05-24T19:58:00.781Z,13.50
2023-05-24T20:00:27.506Z,15.68
2023-05-24T20:02:54.252Z,16.17
2023-05-24T20:05:21.094Z,18.55
2023-05-24T20:07:47.930Z,21.35
2023-05-24T20:10:14.726Z,22.50
2023-05-24T20:12:42.807Z,23.80
2023-05-24T20:15:15.243Z,21.45
2023-05-24T20:17:46.293Z,22.38
2023-05-24T20:20:18.693Z,22.83
2023-05-24T20:22:45.882Z,15.43
2023-05-24T20:25:12.577Z,26.02
2023-05-24T20:27:41.855Z,31.63
2023-05-24T20:30:09.669Z,25.08
2023-05-24T20:32:36.391Z,19.58
2023-05-24T20:35:03.826Z,30.23
2023-05-24T20:37:30.590Z,21.98
2023-05-24T20:39:57.470Z,22.40
2023-05-24T20:42:26.004Z,20.55
2023-05-24T20:44:52.793Z,24.05
2023-05-24T20:47:19.618Z,16.08
2023-05-24T20:49:49.171Z,16.83
2023-05-24T20:52:16.400Z,19.63
2023-05-24T20:54:43.209Z,17.33
2023-05-24T20:57:10.228Z,20.83
2023-05-24T20:59:36.962Z,22.55
2023-05-24T21:02:03.718Z,20.42
2023-05-24T21:04:30.514Z,15.73
2023-05-24T21:06:57.151Z,28.60
2023-05-24T21:09:23.816Z,21.58
2023-05-24T21:11:50.734Z,20.60
2023-05-24T21:14:17.524Z,26.45
2023-05-24T21:16:44.303Z,19.75
2023-05-24T21:19:10.971Z,33.85
2023-05-24T21:21:37.772Z,24.15
2023-05-24T21:24:04.584Z,21.92
2023-05-24T21:26:31.358Z,22.30
2023-05-24T21:28:58.118Z,27.90
2023-05-24T21:31:25.948Z,23.15
2023-05-24T21:33:58.110Z,18.95
2023-05-24T21:36:24.861Z,19.67
2023-05-24T21:38:51.547Z,25.50
2023-05-24T21:41:18.361Z,31.75
2023-05-24T21:43:45.033Z,22.98
2023-05-24T21:46:11.748Z,29.38
2023-05-24T21:48:38.467Z,20.45
2023-05-24T21:51:05.195Z,19.40
2023-05-24T21:53:32.152Z,23.05
2023-05-24T21:55:58.818Z,28.73
2023-05-24T21:58:25.476Z,25.20
2023-05-24T22:00:52.402Z,24.50
2023-05-24T22:03:19.175Z,16.00
2023-05-24T22:05:46.153Z,17.15
2023-05-24T22:08:12.969Z,23.95
2023-05-24T22:10:39.620Z,17.35
2023-05-24T22:13:06.859Z,19.45
2023-05-24T22:15:33.561Z,15.80
2023-05-24T22:18:01.596Z,22.23
2023-05-24T22:20:30.539Z,21.40
2023-05-24T22:22:58.882Z,19.42
2023-05-24T22:25:25.625Z,17.52
2023-05-24T22:27:55.695Z,21.10
2023-05-24T22:30:22.662Z,18.90
2023-05-24T22:32:49.553Z,13.80
2023-05-24T22:35:16.561Z,16.08
2023-05-24T22:37:43.251Z,18.85
2023-05-24T22:40:10.361Z,21.13
2023-05-24T22:42:37.060Z,19.13
2023-05-24T22:45:04.164Z,15.45
2023-05-24T22:47:33.405Z,19.13
2023-05-24T22:50:02.080Z,17.70
2023-05-24T22:52:30.344Z,16.60
2023-05-24T22:54:57.085Z,16.23
2023-05-24T22:57:23.846Z,15.60
2023-05-24T22:59:50.576Z,15.63
2023-05-24T23:02:17.332Z,17.77
2023-05-24T23:04:47.478Z,22.05
2023-05-24T23:07:17.658Z,19.05
2023-05-24T23:09:44.547Z,21.25
2023-05-24T23:12:12.045Z,20.48
2023-05-24T23:14:41.729Z,19.45
2023-05-24T23:17:17.207Z,18.90
2023-05-24T23:19:43.955Z,16.45
2023-05-24T23:22:23.652Z,16.63
2023-05-24T23:24:50.421Z,18.92
2023-05-24T23:27:17.415Z,21.75
2023-05-24T23:29:44.200Z,17.67
2023-05-24T23:32:10.985Z,16.83
2023-05-24T23:34:38.080Z,16.88
2023-05-24T23:37:05.503Z,26.70
2023-05-24T23:39:32.425Z,14.95
2023-05-24T23:41:59.140Z,16.63
2023-05-24T23:44:25.996Z,15.45
2023-05-24T23:46:53.557Z,20.13
2023-05-24T23:49:20.693Z,15.35
2023-05-24T23:51:47.731Z,15.77
2023-05-24T23:54:19.276Z,16.88
2023-05-24T23:56:46.146Z,19.63
2023-05-24T23:59:13.022Z,15.38
